createdAt,value
2022-12-27T00:00:36.067Z,4.77
2022-12-27T00:03:06.486Z,4.77
2022-12-27T00:05:38.260Z,4.79
2022-12-27T00:08:08.216Z,4.80
2022-12-27T00:10:38.735Z,4.78
2022-12-27T00:13:09.383Z,4.81
2022-12-27T00:15:39.287Z,4.91
2022-12-27T00:18:10.121Z,4.83
2022-12-27T00:20:41.915Z,4.80
2022-12-27T00:23:12.648Z,4.77
2022-12-27T00:25:42.548Z,4.79
2022-12-27T00:28:12.803Z,4.86
2022-12-27T00:30:42.664Z,3.95
2022-12-27T00:33:12.919Z,4.89
2022-12-27T00:35:44.555Z,5.01
2022-12-27T00:38:14.558Z,5.14
2022-12-27T00:40:44.992Z,5.00
2022-12-27T00:43:15.663Z,4.92
2022-12-27T00:45:46.388Z,4.95
2022-12-27T00:48:16.285Z,4.91
2022-12-27T00:50:48.651Z,4.89
2022-12-27T00:53:20.513Z,5.06
2022-12-27T00:55:51.083Z,4.96
2022-12-27T00:58:20.953Z,5.06
2022-12-27T01:00:51.582Z,4.96
2022-12-27T01:03:22.245Z,4.85
2022-12-27T01:05:53.538Z,4.88
2022-12-27T01:08:23.492Z,4.72
2022-12-27T01:10:54.120Z,4.90
2022-12-27T01:13:24.968Z,4.85
2022-12-27T01:15:55.328Z,4.82
2022-12-27T01:18:28.462Z,5.17
2022-12-27T01:20:59.804Z,5.44
2022-12-27T01:23:33.240Z,5.37
2022-12-27T01:26:04.570Z,5.33
2022-12-27T01:28:34.998Z,5.18
2022-12-27T01:31:07.581Z,5.00
2022-12-27T01:33:40.512Z,5.51
2022-12-27T01:36:17.640Z,5.37
2022-12-27T01:38:49.721Z,5.23
2022-12-27T01:41:38.941Z,5.37
2022-12-27T01:44:49.851Z,5.42
2022-12-27T01:47:28.355Z,5.29
2022-12-27T01:50:11.085Z,4.49
2022-12-27T01:52:47.648Z,5.41
2022-12-27T01:55:24.638Z,5.40
2022-12-27T01:57:59.479Z,5.33
2022-12-27T02:00:29.965Z,5.19
2022-12-27T02:03:05.858Z,5.16
2022-12-27T02:05:42.023Z,5.06
2022-12-27T02:08:43.532Z,5.17
2022-12-27T02:11:14.921Z,5.22
2022-12-27T02:13:48.076Z,5.24
2022-12-27T02:16:19.307Z,5.21
2022-12-27T02:18:49.937Z,5.28
2022-12-27T02:21:54.025Z,5.11
2022-12-27T02:24:54.729Z,5.02
2022-12-27T02:27:52.254Z,4.97
2022-12-27T02:30:23.857Z,4.94
2022-12-27T02:33:00.319Z,4.93
2022-12-27T02:35:35.437Z,5.00
2022-12-27T02:38:09.703Z,5.00
2022-12-27T02:41:00.587Z,4.26
2022-12-27T02:43:48.930Z,4.94
2022-12-27T02:46:41.853Z,5.47
2022-12-27T02:49:43.721Z,5.66
2022-12-27T02:52:41.491Z,5.66
2022-12-27T02:56:11.239Z,5.68
2022-12-27T02:58:58.550Z,5.69
2022-12-27T03:02:00.424Z,5.63
2022-12-27T03:04:48.039Z,5.41
2022-12-27T03:07:34.504Z,5.71
2022-12-27T03:10:39.704Z,5.46
2022-12-27T03:13:38.183Z,5.04
2022-12-27T03:16:20.647Z,5.60
2022-12-27T03:19:09.216Z,5.58
2022-12-27T03:22:03.093Z,5.63
2022-12-27T03:24:52.571Z,5.78
2022-12-27T03:27:28.835Z,5.69
2022-12-27T03:30:18.002Z,5.83
2022-12-27T03:33:09.731Z,5.58
2022-12-27T03:36:06.017Z,5.64
2022-12-27T03:38:43.691Z,5.35
2022-12-27T03:41:36.614Z,5.52
2022-12-27T03:44:24.708Z,5.44
2022-12-27T03:46:56.923Z,5.46
2022-12-27T03:49:35.168Z,5.32
2022-12-27T03:52:13.437Z,5.51
2022-12-27T03:54:47.060Z,5.37
2022-12-27T03:57:19.622Z,5.09
2022-12-27T03:59:49.496Z,5.35
2022-12-27T04:02:22.120Z,5.20
2022-12-27T04:04:52.294Z,5.21
2022-12-27T04:07:23.610Z,5.45
2022-12-27T04:10:13.661Z,5.29
2022-12-27T04:13:00.558Z,5.16
2022-12-27T04:15:48.080Z,4.92
2022-12-27T04:18:35.005Z,4.85
2022-12-27T04:21:22.431Z,5.09
2022-12-27T04:24:12.039Z,4.89
2022-12-27T04:26:59.582Z,4.98
2022-12-27T04:29:46.465Z,5.03
2022-12-27T04:32:33.205Z,5.19
2022-12-27T04:35:06.635Z,4.87
2022-12-27T04:37:36.076Z,4.73
2022-12-27T04:40:26.420Z,4.78
2022-12-27T04:43:13.892Z,4.91
2022-12-27T04:46:02.246Z,4.92
2022-12-27T04:48:49.689Z,4.69
2022-12-27T04:51:36.539Z,4.70
2022-12-27T04:54:34.358Z,4.57
2022-12-27T04:57:06.904Z,4.48
2022-12-27T04:59:55.275Z,4.75
2022-12-27T05:02:25.499Z,4.62
2022-12-27T05:04:55.212Z,4.60
2022-12-27T05:07:41.682Z,4.63
2022-12-27T05:10:31.216Z,4.41
2022-12-27T05:13:20.798Z,4.34
2022-12-27T05:15:51.187Z,4.31
2022-12-27T05:18:20.940Z,3.51
2022-12-27T05:20:50.999Z,4.20
2022-12-27T05:23:37.795Z,4.23
2022-12-27T05:26:06.993Z,4.31
2022-12-27T05:28:37.328Z,4.47
2022-12-27T05:31:06.405Z,4.42
2022-12-27T05:33:35.794Z,4.51
2022-12-27T05:36:04.543Z,4.56
2022-12-27T05:38:33.630Z,4.67
2022-12-27T05:41:03.980Z,4.53
2022-12-27T05:43:33.735Z,4.74
2022-12-27T05:46:08.560Z,4.73
2022-12-27T05:48:37.818Z,4.63
2022-12-27T05:51:08.296Z,4.38
2022-12-27T05:53:37.468Z,4.68
2022-12-27T05:56:07.281Z,4.71
2022-12-27T05:58:36.499Z,4.56
2022-12-27T06:01:11.906Z,4.60
2022-12-27T06:03:41.171Z,4.54
2022-12-27T06:06:14.063Z,4.47
2022-12-27T06:08:52.981Z,4.67
2022-12-27T06:11:22.414Z,4.79
2022-12-27T06:13:54.961Z,4.11
2022-12-27T06:16:25.634Z,4.60
2022-12-27T06:18:54.618Z,4.52
2022-12-27T06:21:24.189Z,4.53
2022-12-27T06:23:53.304Z,4.38
2022-12-27T06:26:24.414Z,4.12
2022-12-27T06:28:54.345Z,4.28
2022-12-27T06:31:27.511Z,4.24
2022-12-27T06:33:58.772Z,4.21
2022-12-27T06:36:30.259Z,4.20
2022-12-27T06:38:59.674Z,4.46
2022-12-27T06:41:29.166Z,4.10
2022-12-27T06:43:59.571Z,4.07
2022-12-27T06:46:30.658Z,4.12
2022-12-27T06:48:59.809Z,4.15
2022-12-27T06:51:29.556Z,3.96
2022-12-27T06:53:58.843Z,3.30
2022-12-27T06:56:28.126Z,3.97
2022-12-27T06:58:59.852Z,3.99
2022-12-27T07:01:31.033Z,3.95
2022-12-27T07:04:01.694Z,4.01
2022-12-27T07:06:33.207Z,3.97
2022-12-27T07:09:03.761Z,3.94
2022-12-27T07:11:34.588Z,3.98
2022-12-27T07:14:04.590Z,3.71
2022-12-27T07:16:35.424Z,3.84
2022-12-27T07:19:04.810Z,3.84
2022-12-27T07:21:34.614Z,3.85
2022-12-27T07:24:04.622Z,3.84
2022-12-27T07:26:33.840Z,3.85
2022-12-27T07:29:03.970Z,3.84
2022-12-27T07:31:35.188Z,3.74
2022-12-27T07:34:11.084Z,3.79
2022-12-27T07:36:41.370Z,3.71
2022-12-27T07:39:11.445Z,3.72
2022-12-27T07:41:41.539Z,3.71
2022-12-27T07:44:12.975Z,2.76
2022-12-27T07:46:43.295Z,3.74
2022-12-27T07:49:17.616Z,2.90
2022-12-27T07:51:47.320Z,3.80
2022-12-27T07:54:16.785Z,3.72
2022-12-27T07:56:46.056Z,3.70
2022-12-27T07:59:15.456Z,3.71
2022-12-27T08:02:03.628Z,3.83
2022-12-27T08:04:34.503Z,3.60
2022-12-27T08:07:07.205Z,3.72
2022-12-27T08:09:40.952Z,3.76
2022-12-27T08:12:11.036Z,2.00
2022-12-27T08:14:40.645Z,3.75
2022-12-27T08:17:20.424Z,3.74
2022-12-27T08:19:52.566Z,3.74
2022-12-27T08:22:22.029Z,3.79
2022-12-27T08:24:51.654Z,3.84
2022-12-27T08:27:24.570Z,3.89
2022-12-27T08:29:53.518Z,3.85
2022-12-27T08:32:24.218Z,3.80
2022-12-27T08:34:54.303Z,3.01
2022-12-27T08:37:23.526Z,3.93
2022-12-27T08:39:54.523Z,3.86
2022-12-27T08:42:26.794Z,4.14
2022-12-27T08:44:56.289Z,4.21
2022-12-27T08:47:29.837Z,4.11
2022-12-27T08:49:59.029Z,4.06
2022-12-27T08:52:27.758Z,4.31
2022-12-27T08:54:58.837Z,4.28
2022-12-27T08:57:28.984Z,4.36
2022-12-27T08:59:58.106Z,4.38
2022-12-27T09:02:32.807Z,4.47
2022-12-27T09:05:03.508Z,4.28
2022-12-27T09:07:33.633Z,4.19
2022-12-27T09:10:04.521Z,4.20
2022-12-27T09:12:34.784Z,4.30
2022-12-27T09:15:03.670Z,4.22
2022-12-27T09:17:36.901Z,3.83
2022-12-27T09:20:07.870Z,4.34
2022-12-27T09:22:37.039Z,4.25
2022-12-27T09:25:07.819Z,4.49
2022-12-27T09:27:37.572Z,4.37
2022-12-27T09:30:09.865Z,4.41
2022-12-27T09:32:40.455Z,4.20
2022-12-27T09:35:11.193Z,4.31
2022-12-27T09:37:43.502Z,4.53
2022-12-27T09:44:18.379Z,4.44
2022-12-27T09:46:53.549Z,4.55
2022-12-27T09:49:31.159Z,4.51
2022-12-27T09:52:04.638Z,4.59
2022-12-27T09:54:39.378Z,4.33
2022-12-27T09:57:20.302Z,4.59
2022-12-27T09:59:54.027Z,4.66
2022-12-27T10:02:28.411Z,4.69
2022-12-27T10:08:02.014Z,4.79
2022-12-27T10:10:42.503Z,4.96
2022-12-27T10:13:25.592Z,5.03
2022-12-27T10:16:06.565Z,4.93
2022-12-27T10:18:50.012Z,4.89
2022-12-27T10:21:24.143Z,4.97
2022-12-27T10:23:57.009Z,4.96
2022-12-27T10:26:27.417Z,4.92
2022-12-27T10:29:02.034Z,4.79
2022-12-27T10:31:33.200Z,4.92
2022-12-27T10:34:06.245Z,5.10
2022-12-27T10:36:43.301Z,5.22
2022-12-27T10:39:18.661Z,5.47
2022-12-27T10:41:58.477Z,5.46
2022-12-27T10:44:29.888Z,5.46
2022-12-27T10:47:01.104Z,5.59
2022-12-27T10:49:31.906Z,5.57
2022-12-27T10:52:10.323Z,5.54
2022-12-27T10:54:53.067Z,5.40
2022-12-27T10:57:27.952Z,5.66
2022-12-27T11:00:17.649Z,5.71
2022-12-27T11:02:54.733Z,6.01
2022-12-27T11:05:26.983Z,5.91
2022-12-27T11:07:58.168Z,5.78
2022-12-27T11:10:29.471Z,5.99
2022-12-27T11:13:01.897Z,5.83
2022-12-27T11:15:34.853Z,5.81
2022-12-27T11:18:11.051Z,5.65
2022-12-27T11:20:46.111Z,5.56
2022-12-27T11:23:18.468Z,6.15
2022-12-27T11:25:54.356Z,6.10
2022-12-27T11:28:30.420Z,6.24
2022-12-27T11:31:02.521Z,6.44
2022-12-27T11:33:37.702Z,6.61
2022-12-27T11:36:08.889Z,6.91
2022-12-27T11:38:43.608Z,6.79
2022-12-27T11:41:27.571Z,7.00
2022-12-27T11:44:03.654Z,6.88
2022-12-27T11:46:42.527Z,6.92
2022-12-27T11:49:21.137Z,6.87
2022-12-27T11:52:25.988Z,6.74
2022-12-27T11:55:28.166Z,6.73
2022-12-27T11:58:18.637Z,6.59
2022-12-27T12:01:03.663Z,6.51
2022-12-27T12:04:04.837Z,6.43
2022-12-27T12:06:48.824Z,6.22
2022-12-27T12:09:44.539Z,6.41
2022-12-27T12:12:46.608Z,6.51
2022-12-27T12:15:52.294Z,6.52
2022-12-27T12:18:39.892Z,6.56
2022-12-27T12:21:35.907Z,6.57
2022-12-27T12:24:58.122Z,6.54
2022-12-27T12:27:52.913Z,6.68
2022-12-27T12:30:40.735Z,6.64
2022-12-27T12:33:43.282Z,6.57
2022-12-27T12:36:37.861Z,6.64
2022-12-27T12:39:19.838Z,6.62
2022-12-27T12:42:11.579Z,6.73
2022-12-27T12:45:21.721Z,6.68
2022-12-27T12:48:09.851Z,6.68
2022-12-27T12:51:04.335Z,6.75
2022-12-27T12:54:03.547Z,6.83
2022-12-27T12:57:03.177Z,6.77
2022-12-27T12:59:49.246Z,6.80
2022-12-27T13:02:50.127Z,6.92
2022-12-27T13:05:26.333Z,6.89
2022-12-27T13:08:08.448Z,6.80
2022-12-27T13:10:51.210Z,6.67
2022-12-27T13:13:27.467Z,6.93
2022-12-27T13:16:23.427Z,6.96
2022-12-27T13:19:06.917Z,6.89
2022-12-27T13:21:52.663Z,6.64
2022-12-27T13:24:32.498Z,6.72
2022-12-27T13:27:10.955Z,6.67
2022-12-27T13:29:54.235Z,6.49
2022-12-27T13:32:36.892Z,6.49
2022-12-27T13:35:31.231Z,6.57
2022-12-27T13:38:14.798Z,6.61
2022-12-27T13:41:30.789Z,6.54
2022-12-27T13:44:23.909Z,6.39
2022-12-27T13:47:19.446Z,6.27
2022-12-27T13:50:12.514Z,6.48
2022-12-27T13:52:59.532Z,6.46
2022-12-27T13:55:50.425Z,6.32
2022-12-27T13:59:13.175Z,6.35
2022-12-27T14:02:04.243Z,6.38
2022-12-27T14:05:07.110Z,5.54
2022-12-27T14:07:53.508Z,6.31
2022-12-27T14:10:37.459Z,6.28
2022-12-27T14:13:10.115Z,6.18
2022-12-27T14:16:05.821Z,5.49
2022-12-27T14:18:49.508Z,6.23
2022-12-27T14:21:39.676Z,6.24
2022-12-27T14:24:28.044Z,6.38
2022-12-27T14:27:35.199Z,6.28
2022-12-27T14:30:49.239Z,6.25
2022-12-27T14:34:00.188Z,6.41
2022-12-27T14:37:15.896Z,6.27
2022-12-27T14:40:34.388Z,6.29
2022-12-27T14:43:43.073Z,6.31
2022-12-27T14:46:44.909Z,6.21
2022-12-27T14:49:46.288Z,6.28
2022-12-27T14:52:51.846Z,6.24
2022-12-27T14:55:49.302Z,6.26
2022-12-27T14:58:43.817Z,5.28
2022-12-27T15:01:22.265Z,6.32
2022-12-27T15:04:26.309Z,6.34
2022-12-27T15:07:18.975Z,6.40
2022-12-27T15:10:02.654Z,6.39
2022-12-27T15:12:41.150Z,6.21
2022-12-27T15:15:51.015Z,6.34
2022-12-27T15:18:39.497Z,6.12
2022-12-27T15:21:26.067Z,6.11
2022-12-27T15:24:04.338Z,6.13
2022-12-27T15:26:41.585Z,6.11
2022-12-27T15:29:23.990Z,6.02
2022-12-27T15:32:02.419Z,6.04
2022-12-27T15:34:59.836Z,5.92
2022-12-27T15:38:10.684Z,6.02
2022-12-27T15:40:50.609Z,5.84
2022-12-27T15:43:40.456Z,6.01
2022-12-27T15:46:23.990Z,5.99
2022-12-27T15:49:14.561Z,5.95
2022-12-27T15:51:51.878Z,6.02
2022-12-27T15:54:42.393Z,6.04
2022-12-27T15:57:56.853Z,6.05
2022-12-27T16:00:33.543Z,5.97
2022-12-27T16:03:04.720Z,6.14
2022-12-27T16:05:53.166Z,5.98
2022-12-27T16:08:32.923Z,6.07
2022-12-27T16:11:04.354Z,5.86
2022-12-27T16:13:49.517Z,6.08
2022-12-27T16:16:55.781Z,6.18
2022-12-27T16:19:40.908Z,6.16
2022-12-27T16:22:26.205Z,6.15
2022-12-27T16:24:55.979Z,6.29
2022-12-27T16:27:32.122Z,6.16
2022-12-27T16:30:02.781Z,6.20
2022-12-27T16:32:33.028Z,6.22
2022-12-27T16:35:14.917Z,6.13
2022-12-27T16:37:51.484Z,6.06
2022-12-27T16:40:38.071Z,6.06
2022-12-27T16:43:51.612Z,5.97
2022-12-27T16:46:49.286Z,6.04
2022-12-27T16:50:00.715Z,6.05
2022-12-27T16:52:48.944Z,6.01
2022-12-27T16:56:02.557Z,5.93
2022-12-27T16:58:37.222Z,5.79
2022-12-27T17:01:46.417Z,5.81
2022-12-27T17:04:50.872Z,5.83
2022-12-27T17:07:49.913Z,5.88
2022-12-27T17:10:52.809Z,5.77
2022-12-27T17:13:35.030Z,5.81
2022-12-27T17:16:09.070Z,5.87
2022-12-27T17:18:45.026Z,6.08
2022-12-27T17:21:24.619Z,5.88
2022-12-27T17:24:00.558Z,5.80
2022-12-27T17:26:56.324Z,5.88
2022-12-27T17:29:52.824Z,5.86
2022-12-27T17:32:35.419Z,6.01
2022-12-27T17:35:13.352Z,5.72
2022-12-27T17:37:49.506Z,5.99
2022-12-27T17:40:33.803Z,5.74
2022-12-27T17:43:29.949Z,5.90
2022-12-27T17:46:16.401Z,5.83
2022-12-27T17:48:48.177Z,5.82
2022-12-27T17:51:22.062Z,5.87
2022-12-27T17:54:10.866Z,5.63
2022-12-27T17:57:04.838Z,5.93
2022-12-27T17:59:35.413Z,5.81
2022-12-27T18:02:16.688Z,5.85
2022-12-27T18:04:50.241Z,5.76
2022-12-27T18:07:25.745Z,5.89
2022-12-27T18:09:58.748Z,5.68
2022-12-27T18:12:31.805Z,5.88
2022-12-27T18:15:04.159Z,5.80
2022-12-27T18:17:37.564Z,5.83
2022-12-27T18:20:22.089Z,5.86
2022-12-27T18:22:51.226Z,5.99
2022-12-27T18:25:25.363Z,5.91
2022-12-27T18:28:02.655Z,6.01
2022-12-27T18:30:38.232Z,5.86
2022-12-27T18:33:08.587Z,6.14
2022-12-27T18:35:37.981Z,5.86
2022-12-27T18:38:10.097Z,5.89
2022-12-27T18:40:38.984Z,6.05
2022-12-27T18:43:15.703Z,5.80
2022-12-27T18:45:46.619Z,5.75
2022-12-27T18:48:19.521Z,5.58
2022-12-27T18:50:53.404Z,5.67
2022-12-27T18:53:25.067Z,5.53
2022-12-27T18:55:59.427Z,5.86
2022-12-27T18:58:30.180Z,5.76
2022-12-27T19:01:02.792Z,5.85
2022-12-27T19:03:38.268Z,5.79
2022-12-27T19:06:13.479Z,5.84
2022-12-27T19:08:48.015Z,5.68
2022-12-27T19:11:22.480Z,5.36
2022-12-27T19:13:56.497Z,5.71
2022-12-27T19:16:29.304Z,5.70
2022-12-27T19:19:08.678Z,5.89
2022-12-27T19:21:40.616Z,5.73
2022-12-27T19:24:37.730Z,5.66
2022-12-27T19:27:24.953Z,5.47
2022-12-27T19:29:58.729Z,5.62
2022-12-27T19:32:33.345Z,5.57
2022-12-27T19:35:05.491Z,5.56
2022-12-27T19:37:35.833Z,5.33
2022-12-27T19:40:08.709Z,5.39
2022-12-27T19:42:38.000Z,5.49
2022-12-27T19:45:08.856Z,5.45
2022-12-27T19:47:40.157Z,5.46
2022-12-27T19:50:11.316Z,5.56
2022-12-27T19:52:41.317Z,5.52
2022-12-27T19:55:17.475Z,5.60
2022-12-27T19:57:48.648Z,5.53
2022-12-27T20:00:20.584Z,5.57
2022-12-27T20:02:51.224Z,5.69
2022-12-27T20:06:12.527Z,5.70
2022-12-27T20:08:25.450Z,5.66
2022-12-27T20:10:58.291Z,5.15
2022-12-27T20:13:28.091Z,5.53
2022-12-27T20:16:00.982Z,5.67
2022-12-27T20:18:31.151Z,4.61
2022-12-27T20:21:00.895Z,5.55
2022-12-27T20:23:30.430Z,5.51
2022-12-27T20:25:59.980Z,5.66
2022-12-27T20:28:29.459Z,5.70
2022-12-27T20:31:07.780Z,5.68
2022-12-27T20:33:37.214Z,5.72
2022-12-27T20:36:08.750Z,5.54
2022-12-27T20:38:39.938Z,5.28
2022-12-27T20:41:11.102Z,5.49
2022-12-27T20:43:41.048Z,5.44
2022-12-27T20:46:14.961Z,5.44
2022-12-27T20:48:45.773Z,5.56
2022-12-27T20:51:20.266Z,5.51
2022-12-27T20:53:55.323Z,5.72
2022-12-27T20:56:26.080Z,5.61
2022-12-27T20:58:56.232Z,5.82
2022-12-27T21:01:28.621Z,5.88
2022-12-27T21:03:59.039Z,5.74
2022-12-27T21:06:31.368Z,5.46
2022-12-27T21:09:01.416Z,5.67
2022-12-27T21:11:33.185Z,5.70
2022-12-27T21:14:05.000Z,5.60
2022-12-27T21:16:39.093Z,5.59
2022-12-27T21:19:09.356Z,5.66
2022-12-27T21:21:40.887Z,5.64
2022-12-27T21:24:10.834Z,5.30
2022-12-27T21:26:41.898Z,5.65
2022-12-27T21:29:14.439Z,5.91
2022-12-27T21:31:45.114Z,5.67
2022-12-27T21:34:16.856Z,5.66
2022-12-27T21:36:46.648Z,5.65
2022-12-27T21:39:17.196Z,5.80
2022-12-27T21:41:52.388Z,5.83
2022-12-27T21:44:25.393Z,5.77
2022-12-27T21:46:56.141Z,5.72
2022-12-27T21:49:25.777Z,5.84
2022-12-27T21:51:55.835Z,5.66
2022-12-27T21:54:25.767Z,5.76
2022-12-27T21:56:55.223Z,5.75
2022-12-27T21:59:25.122Z,5.68
2022-12-27T22:01:56.173Z,5.74
2022-12-27T22:04:25.407Z,5.66
2022-12-27T22:06:55.203Z,5.56
2022-12-27T22:09:24.157Z,5.56
2022-12-27T22:11:53.538Z,5.52
2022-12-27T22:14:25.594Z,5.55
2022-12-27T22:17:00.171Z,5.49
2022-12-27T22:19:31.887Z,5.58
2022-12-27T22:22:01.896Z,5.75
2022-12-27T22:24:33.328Z,5.80
2022-12-27T22:27:02.968Z,5.78
2022-12-27T22:29:35.410Z,5.76
2022-12-27T22:32:07.176Z,5.59
2022-12-27T22:34:39.340Z,5.58
2022-12-27T22:37:09.399Z,5.57
2022-12-27T22:39:39.295Z,5.63
2022-12-27T22:42:09.647Z,5.62
2022-12-27T22:44:39.126Z,5.49
2022-12-27T22:47:26.444Z,5.69
2022-12-27T22:49:57.608Z,5.47
2022-12-27T22:52:26.597Z,5.61
2022-12-27T22:55:04.173Z,5.53
2022-12-27T22:57:36.065Z,5.66
2022-12-27T23:00:06.752Z,5.55
2022-12-27T23:02:38.127Z,5.49
2022-12-27T23:05:08.145Z,5.52
2022-12-27T23:08:04.929Z,5.63
2022-12-27T23:10:26.874Z,5.74
2022-12-27T23:12:57.949Z,5.55
2022-12-27T23:15:27.597Z,5.63
2022-12-27T23:17:59.058Z,5.41
2022-12-27T23:20:28.594Z,5.30
2022-12-27T23:22:59.055Z,5.46
2022-12-27T23:25:29.346Z,5.45
2022-12-27T23:27:59.343Z,4.98
2022-12-27T23:30:29.594Z,5.41
2022-12-27T23:33:00.697Z,5.43
2022-12-27T23:35:30.366Z,5.40
2022-12-27T23:38:00.390Z,5.46
2022-12-27T23:40:31.156Z,5.68
2022-12-27T23:43:18.771Z,5.53
2022-12-27T23:45:51.373Z,5.31
2022-12-27T23:48:22.170Z,4.74
2022-12-27T23:50:51.730Z,5.40
2022-12-27T23:53:21.737Z,5.52
2022-12-27T23:55:58.334Z,5.39
2022-12-27T23:58:28.471Z,5.60
